Time;durP1;ratioP1;P1;durP2;ratioP2;P2;SDS_P1;SDS_P2;PMS_P1;PMS_P2;Temp;Humidity;BMP_temperature;BMP_pressure;BME280_temperature;BME280_humidity;BME280_pressure;Samples;Min_cycle;Max_cycle;Signal;HPM_P1;HPM_P2
2023/09/23 00:01:16;;;;;;;2.08;0.50;;;11.40;99.90;;;;;;4920767;29;20171;-88
2023/09/23 00:03:43;;;;;;;1.42;0.50;;;11.40;99.90;;;;;;4948346;29;21530;-88
2023/09/23 00:06:08;;;;;;;2.47;0.40;;;11.40;99.90;;;;;;4952100;29;20059;-88
2023/09/23 00:08:34;;;;;;;1.20;0.57;;;11.40;99.90;;;;;;4954785;28;20055;-87
2023/09/23 00:11:00;;;;;;;2.05;0.68;;;11.40;99.90;;;;;;4957957;28;20038;-88
2023/09/23 00:13:28;;;;;;;2.13;0.70;;;11.40;99.90;;;;;;4940123;29;20031;-88
2023/09/23 00:15:55;;;;;;;2.72;0.73;;;11.40;99.90;;;;;;4937812;29;20051;-88
2023/09/23 00:18:21;;;;;;;2.92;0.60;;;11.30;99.90;;;;;;4955884;29;20035;-89
2023/09/23 00:20:47;;;;;;;2.83;0.90;;;11.30;99.90;;;;;;4956730;29;20595;-89
2023/09/23 00:23:13;;;;;;;3.00;0.70;;;11.30;99.90;;;;;;4954567;29;20035;-89
2023/09/23 00:25:39;;;;;;;1.52;0.70;;;11.20;99.90;;;;;;4945109;29;20028;-89
2023/09/23 00:28:10;;;;;;;3.88;0.70;;;11.20;99.90;;;;;;4939975;29;20035;-89
2023/09/23 00:30:37;;;;;;;3.83;0.90;;;11.20;99.90;;;;;;4939476;29;20027;-89
2023/09/23 00:33:03;;;;;;;1.05;0.47;;;11.10;99.90;;;;;;4951152;28;20304;-87
2023/09/23 00:35:28;;;;;;;1.60;0.80;;;11.10;99.90;;;;;;4934348;29;20028;-88
2023/09/23 00:37:54;;;;;;;2.83;1.05;;;11.10;99.90;;;;;;4952441;29;20048;-86
2023/09/23 00:40:30;;;;;;;4.38;1.70;;;11.00;99.90;;;;;;4952747;28;20023;-86
2023/09/23 00:42:56;;;;;;;3.17;2.03;;;10.90;99.90;;;;;;4952849;29;20038;-86
2023/09/23 00:45:25;;;;;;;5.68;2.50;;;10.90;99.90;;;;;;4935430;29;20063;-86
2023/09/23 00:47:52;;;;;;;5.20;3.22;;;10.80;99.90;;;;;;4936366;29;20059;-87
2023/09/23 00:50:20;;;;;;;6.70;3.72;;;10.80;99.90;;;;;;4950013;29;20035;-87
2023/09/23 00:52:48;;;;;;;5.95;4.57;;;10.70;99.90;;;;;;4940312;29;20503;-88
2023/09/23 00:55:16;;;;;;;7.88;5.57;;;10.70;99.90;;;;;;4942439;29;20031;-87
2023/09/23 00:57:43;;;;;;;8.68;5.68;;;10.70;99.90;;;;;;4951913;29;20035;-87
2023/09/23 01:00:23;;;;;;;7.80;6.15;;;10.70;99.90;;;;;;4935614;29;20058;-87
2023/09/23 01:02:49;;;;;;;10.98;7.15;;;10.70;99.90;;;;;;4952488;29;20126;-87
2023/09/23 01:05:18;;;;;;;10.75;8.38;;;10.60;99.90;;;;;;4952307;29;20127;-86
2023/09/23 01:07:45;;;;;;;13.70;9.48;;;10.60;99.90;;;;;;4946572;29;20035;-87
2023/09/23 01:10:12;;;;;;;14.27;10.32;;;10.60;99.90;;;;;;4952281;29;20082;-88
2023/09/23 01:12:37;;;;;;;13.13;10.07;;;10.60;99.90;;;;;;4952382;29;20036;-87
2023/09/23 01:15:17;;;;;;;15.18;10.52;;;10.60;99.90;;;;;;4948103;29;20028;-87
2023/09/23 01:17:52;;;;;;;14.13;10.55;;;10.60;99.90;;;;;;4927079;29;20067;-88
2023/09/23 01:20:18;;;;;;;18.92;12.75;;;10.60;99.90;;;;;;4951318;28;20488;-86
2023/09/23 01:22:45;;;;;;;16.25;12.48;;;10.60;99.90;;;;;;4949783;29;20126;-87
2023/09/23 01:25:10;;;;;;;21.05;14.52;;;10.60;99.90;;;;;;4950449;29;20059;-86
2023/09/23 01:27:36;;;;;;;19.30;14.15;;;10.60;99.90;;;;;;4950872;28;20118;-86
2023/09/23 01:30:05;;;;;;;20.60;15.60;;;10.60;99.90;;;;;;4935072;29;20488;-86
2023/09/23 01:32:51;;;;;;;21.88;15.77;;;10.70;99.90;;;;;;4951205;29;20544;-86
2023/09/23 01:35:18;;;;;;;20.52;15.45;;;10.70;99.90;;;;;;4951073;29;20032;-87
2023/09/23 01:37:48;;;;;;;21.65;16.55;;;10.70;99.90;;;;;;4949586;29;20032;-88
2023/09/23 01:40:17;;;;;;;21.60;16.83;;;10.70;99.90;;;;;;4948324;28;20031;-86
2023/09/23 01:42:49;;;;;;;21.17;17.02;;;10.60;99.90;;;;;;4934569;29;20028;-87
2023/09/23 01:45:15;;;;;;;24.35;17.95;;;10.60;99.90;;;;;;4950340;29;20095;-87
2023/09/23 01:47:41;;;;;;;23.08;17.70;;;10.70;99.90;;;;;;4932527;29;20396;-87
2023/09/23 01:50:10;;;;;;;24.02;18.27;;;10.70;99.90;;;;;;4950292;29;20087;-86
2023/09/23 01:52:37;;;;;;;24.88;19.00;;;10.70;99.90;;;;;;4947344;29;20126;-86
2023/09/23 01:55:05;;;;;;;23.83;18.45;;;10.70;99.90;;;;;;4951252;29;20061;-88
2023/09/23 01:57:33;;;;;;;27.65;20.23;;;10.80;99.90;;;;;;4947623;29;20493;-88
2023/09/23 01:59:59;;;;;;;33.85;19.95;;;10.80;99.90;;;;;;4950249;29;20131;-87
2023/09/23 02:02:26;;;;;;;27.70;19.80;;;10.80;99.90;;;;;;4951441;29;20027;-87
2023/09/23 02:04:52;;;;;;;27.20;20.58;;;10.80;99.90;;;;;;4951075;29;20079;-87
2023/09/23 02:07:18;;;;;;;25.90;18.85;;;10.90;99.90;;;;;;4960652;28;20031;-87
2023/09/23 02:09:43;;;;;;;27.70;19.92;;;10.90;99.90;;;;;;4931377;29;20396;-87
2023/09/23 02:12:09;;;;;;;31.98;20.60;;;11.00;99.90;;;;;;4943154;29;20032;-87
2023/09/23 02:14:34;;;;;;;27.27;20.08;;;11.00;99.90;;;;;;4945568;29;20051;-87
2023/09/23 02:17:00;;;;;;;28.48;20.30;;;11.10;99.90;;;;;;4947863;29;20425;-86
2023/09/23 02:19:25;;;;;;;28.98;19.83;;;11.10;99.90;;;;;;4941829;29;20039;-87
2023/09/23 02:21:51;;;;;;;32.42;20.40;;;11.20;99.90;;;;;;4946793;29;20066;-87
2023/09/23 02:24:18;;;;;;;28.45;20.17;;;11.20;99.90;;;;;;4939846;29;20123;-87
2023/09/23 02:26:45;;;;;;;27.95;19.70;;;11.20;99.90;;;;;;4929347;29;20090;-87
2023/09/23 02:29:12;;;;;;;30.92;21.15;;;11.30;99.90;;;;;;4949741;29;20530;-86
2023/09/23 02:31:38;;;;;;;30.52;20.88;;;11.40;99.90;;;;;;4930092;29;20028;-87
2023/09/23 02:34:05;;;;;;;27.90;19.92;;;11.40;99.90;;;;;;4950731;28;20058;-87
2023/09/23 02:36:33;;;;;;;26.88;19.17;;;11.40;99.90;;;;;;4950800;29;20031;-86
2023/09/23 02:38:59;;;;;;;28.60;18.77;;;11.40;99.90;;;;;;4948396;29;20067;-86
2023/09/23 02:41:25;;;;;;;24.52;16.95;;;11.40;99.90;;;;;;4947523;29;20392;-87
2023/09/23 02:43:52;;;;;;;24.67;17.00;;;11.50;99.90;;;;;;4950600;29;20119;-86
2023/09/23 02:46:18;;;;;;;26.70;17.02;;;11.50;99.90;;;;;;4931695;29;20124;-87
2023/09/23 02:48:44;;;;;;;23.48;15.18;;;11.50;99.90;;;;;;4930450;29;20036;-87
2023/09/23 02:51:12;;;;;;;20.52;15.40;;;11.50;99.90;;;;;;4926808;29;20036;-86
2023/09/23 02:53:38;;;;;;;24.92;15.20;;;11.50;99.90;;;;;;4950403;29;20035;-86
2023/09/23 02:56:08;;;;;;;23.75;15.65;;;11.50;99.90;;;;;;4947436;29;20034;-87
2023/09/23 02:58:34;;;;;;;20.80;13.80;;;11.60;99.90;;;;;;4949923;29;20043;-86
2023/09/23 03:01:04;;;;;;;23.80;14.77;;;11.60;99.90;;;;;;4933523;29;20031;-87
2023/09/23 03:03:30;;;;;;;21.70;13.77;;;11.60;99.90;;;;;;4942184;29;20123;-86
2023/09/23 03:05:57;;;;;;;21.70;14.02;;;11.60;99.90;;;;;;4949794;29;20059;-87
2023/09/23 03:08:23;;;;;;;22.58;14.32;;;11.60;99.90;;;;;;4950334;28;20032;-86
2023/09/23 03:10:51;;;;;;;23.70;14.80;;;11.60;99.90;;;;;;4949533;29;20020;-86
2023/09/23 03:13:17;;;;;;;22.95;14.70;;;11.70;99.90;;;;;;4949836;29;20405;-86
2023/09/23 03:15:52;;;;;;;19.48;13.65;;;11.70;99.90;;;;;;4949973;28;20163;-87
2023/09/23 03:18:27;;;;;;;23.73;14.25;;;11.70;99.90;;;;;;4949249;29;20044;-86
2023/09/23 03:20:54;;;;;;;23.05;14.85;;;11.70;99.90;;;;;;4949581;29;20063;-87
2023/09/23 03:23:21;;;;;;;25.48;15.35;;;11.70;99.90;;;;;;4933768;29;20070;-87
2023/09/23 03:25:48;;;;;;;24.13;14.77;;;11.80;99.90;;;;;;4929185;29;20481;-87
2023/09/23 03:28:15;;;;;;;20.65;14.88;;;11.80;99.90;;;;;;4931382;29;20469;-86
2023/09/23 03:30:43;;;;;;;32.20;17.33;;;11.80;99.90;;;;;;4949415;29;20047;-87
2023/09/23 03:33:09;;;;;;;24.92;16.00;;;11.80;99.90;;;;;;4945208;29;20404;-87
2023/09/23 03:35:35;;;;;;;23.02;17.20;;;11.80;99.90;;;;;;4953481;28;20180;-87
2023/09/23 03:38:01;;;;;;;25.33;16.80;;;11.80;99.90;;;;;;4937455;29;20039;-87
2023/09/23 03:40:27;;;;;;;26.63;16.08;;;11.80;99.90;;;;;;4935908;28;20031;-87
2023/09/23 03:42:53;;;;;;;26.65;16.75;;;11.80;99.90;;;;;;4953199;28;20130;-87
2023/09/23 03:45:19;;;;;;;27.13;16.50;;;11.70;99.90;;;;;;4940928;29;20119;-87
2023/09/23 03:47:46;;;;;;;26.13;16.50;;;11.70;99.90;;;;;;4954233;29;20035;-86
2023/09/23 03:50:15;;;;;;;23.33;16.25;;;11.70;99.90;;;;;;4956662;29;20058;-87
2023/09/23 03:52:42;;;;;;;26.33;17.90;;;11.70;99.90;;;;;;4940085;29;20027;-87
2023/09/23 03:55:11;;;;;;;28.00;17.65;;;11.70;99.90;;;;;;4954133;29;20071;-87
2023/09/23 03:57:38;;;;;;;27.10;17.83;;;11.70;99.90;;;;;;4956916;29;20027;-87
2023/09/23 04:00:16;;;;;;;28.52;16.10;;;11.70;99.90;;;;;;4955993;29;20093;-86
2023/09/23 04:02:42;;;;;;;29.50;16.88;;;11.70;99.90;;;;;;4941042;29;20023;-87
2023/09/23 04:05:08;;;;;;;26.52;15.82;;;11.70;99.90;;;;;;4938377;29;20042;-87
2023/09/23 04:07:33;;;;;;;23.77;16.35;;;11.70;99.90;;;;;;4940620;29;20023;-88
2023/09/23 04:09:59;;;;;;;23.60;15.60;;;11.70;99.90;;;;;;4946069;29;20049;-86
2023/09/23 04:12:24;;;;;;;25.77;16.67;;;11.70;99.90;;;;;;4956772;29;20090;-87
2023/09/23 04:14:50;;;;;;;27.13;16.58;;;11.70;99.90;;;;;;4949303;29;20037;-87
2023/09/23 04:17:15;;;;;;;25.17;15.07;;;11.70;99.90;;;;;;4956526;29;20031;-86
2023/09/23 04:19:41;;;;;;;22.25;13.80;;;11.70;99.90;;;;;;4954057;28;20039;-86
2023/09/23 04:22:06;;;;;;;20.00;14.07;;;11.60;99.90;;;;;;4954837;29;20028;-86
2023/09/23 04:24:32;;;;;;;19.60;13.63;;;11.60;99.90;;;;;;4952777;28;20058;-86
2023/09/23 04:26:59;;;;;;;28.48;15.63;;;11.50;99.90;;;;;;4956310;28;20031;-87
2023/09/23 04:29:25;;;;;;;25.50;15.13;;;11.50;99.90;;;;;;4955466;29;20200;-87
2023/09/23 04:31:51;;;;;;;20.88;12.82;;;11.50;99.90;;;;;;4933311;29;20499;-87
2023/09/23 04:34:17;;;;;;;18.02;12.88;;;11.50;99.90;;;;;;4954522;28;20047;-87
2023/09/23 04:36:44;;;;;;;19.65;11.60;;;11.50;99.90;;;;;;4939940;29;20051;-87
2023/09/23 04:39:10;;;;;;;18.80;12.45;;;11.50;99.90;;;;;;4937303;29;20162;-87
2023/09/23 04:41:39;;;;;;;17.80;11.75;;;11.40;99.90;;;;;;4956034;29;20110;-86
2023/09/23 04:44:05;;;;;;;17.20;12.55;;;11.40;99.90;;;;;;4940924;28;20087;-87
2023/09/23 04:46:33;;;;;;;24.60;12.52;;;11.40;99.90;;;;;;4956285;29;20019;-86
2023/09/23 04:48:59;;;;;;;15.77;11.60;;;11.50;99.90;;;;;;4955372;28;20038;-87
2023/09/23 04:51:25;;;;;;;16.48;11.27;;;11.40;99.90;;;;;;4933987;29;20031;-87
2023/09/23 04:53:51;;;;;;;17.65;11.40;;;11.50;99.90;;;;;;4947232;28;20046;-87
2023/09/23 04:56:16;;;;;;;16.52;10.70;;;11.50;99.90;;;;;;4945517;29;20114;-87
2023/09/23 04:58:42;;;;;;;21.45;10.52;;;11.50;99.90;;;;;;4952220;29;20518;-87
2023/09/23 05:01:09;;;;;;;16.55;10.55;;;11.50;99.90;;;;;;4955697;28;20027;-87
2023/09/23 05:03:36;;;;;;;14.20;11.23;;;11.50;99.90;;;;;;4954059;29;20034;-87
2023/09/23 05:06:02;;;;;;;16.02;9.85;;;11.40;99.90;;;;;;4940967;29;20044;-87
2023/09/23 05:08:28;;;;;;;17.50;9.60;;;11.30;99.90;;;;;;4941155;29;20075;-87
2023/09/23 05:10:53;;;;;;;13.57;9.05;;;11.30;99.90;;;;;;4939315;29;20027;-87
2023/09/23 05:13:19;;;;;;;16.20;9.05;;;11.20;99.90;;;;;;4955696;29;20026;-86
2023/09/23 05:15:44;;;;;;;14.23;7.90;;;11.10;99.90;;;;;;4956487;28;20031;-86
2023/09/23 05:18:10;;;;;;;13.50;8.50;;;11.10;99.90;;;;;;4953644;29;20050;-86
2023/09/23 05:20:36;;;;;;;14.02;8.70;;;11.00;99.90;;;;;;4937193;29;20130;-86
2023/09/23 05:23:04;;;;;;;14.60;8.07;;;11.10;99.90;;;;;;4954964;29;20019;-86
2023/09/23 05:25:31;;;;;;;16.23;8.18;;;11.00;99.90;;;;;;4933978;29;20467;-86
2023/09/23 05:27:57;;;;;;;13.70;7.20;;;10.90;99.90;;;;;;4956379;29;20540;-87
2023/09/23 05:30:26;;;;;;;17.25;7.90;;;10.90;99.90;;;;;;4955969;28;20134;-86
2023/09/23 05:32:51;;;;;;;11.73;7.22;;;10.80;99.90;;;;;;4955027;29;20059;-86
2023/09/23 05:35:17;;;;;;;14.90;6.97;;;10.80;99.90;;;;;;4947655;28;20085;-86
2023/09/23 05:37:47;;;;;;;16.13;7.25;;;10.80;99.90;;;;;;4940004;29;20408;-86
2023/09/23 05:42:47;;;;;;;10.05;6.45;;;10.70;99.90;;;;;;4950590;28;20027;-87
2023/09/23 05:45:14;;;;;;;13.77;6.28;;;10.70;99.90;;;;;;4952739;29;20034;-87
2023/09/23 05:47:41;;;;;;;12.23;6.35;;;10.70;99.90;;;;;;4944449;28;20035;-86
2023/09/23 05:50:07;;;;;;;12.65;6.53;;;10.70;99.90;;;;;;4943217;28;20038;-86
2023/09/23 05:52:35;;;;;;;13.38;6.95;;;10.70;99.90;;;;;;4946585;28;20027;-86
2023/09/23 05:55:00;;;;;;;12.75;6.13;;;10.70;99.90;;;;;;4944550;28;20031;-86
2023/09/23 05:57:26;;;;;;;10.13;6.35;;;10.70;99.90;;;;;;4942545;28;20951;-86
2023/09/23 05:59:52;;;;;;;12.57;6.28;;;10.70;99.90;;;;;;4946752;28;20050;-86
2023/09/23 06:02:18;;;;;;;14.52;6.38;;;10.70;99.90;;;;;;4925038;29;20042;-85
2023/09/23 06:04:43;;;;;;;14.75;7.10;;;10.70;99.90;;;;;;4946478;28;20039;-87
2023/09/23 06:07:09;;;;;;;10.88;6.45;;;10.80;99.90;;;;;;4944589;28;20030;-86
2023/09/23 06:09:34;;;;;;;14.05;6.75;;;10.80;99.90;;;;;;4944667;28;20396;-85
2023/09/23 06:12:00;;;;;;;11.85;6.63;;;10.80;99.90;;;;;;4927555;28;20113;-85
2023/09/23 06:14:26;;;;;;;13.95;6.95;;;10.90;99.90;;;;;;4919729;29;20035;-87
2023/09/23 06:16:51;;;;;;;12.07;7.00;;;10.90;99.90;;;;;;4929146;29;20032;-85
2023/09/23 06:19:17;;;;;;;10.18;6.68;;;11.00;99.90;;;;;;4944424;28;20054;-85
2023/09/23 06:21:42;;;;;;;10.63;6.60;;;11.00;99.90;;;;;;4944124;28;20487;-86
2023/09/23 06:24:10;;;;;;;14.52;7.55;;;11.00;99.90;;;;;;4953328;28;20114;-86
2023/09/23 06:26:36;;;;;;;10.98;6.95;;;11.00;99.90;;;;;;4928085;29;20197;-86
2023/09/23 06:29:02;;;;;;;13.48;8.02;;;11.10;99.90;;;;;;4940025;28;20035;-85
2023/09/23 06:31:31;;;;;;;13.93;8.18;;;11.10;99.90;;;;;;4937633;29;20397;-85
2023/09/23 06:33:57;;;;;;;14.05;8.18;;;11.20;99.90;;;;;;4952008;29;20039;-86
2023/09/23 06:36:23;;;;;;;16.02;8.13;;;11.20;99.90;;;;;;4952322;28;20053;-87
2023/09/23 06:38:49;;;;;;;17.52;9.00;;;11.20;99.90;;;;;;4935965;29;20039;-87
2023/09/23 06:41:14;;;;;;;12.57;9.40;;;11.30;99.90;;;;;;4951319;28;20551;-87
2023/09/23 06:43:40;;;;;;;14.90;8.85;;;11.30;99.90;;;;;;4938182;29;20027;-86
2023/09/23 06:46:07;;;;;;;13.85;8.85;;;11.30;99.90;;;;;;4952142;29;20035;-86
2023/09/23 06:48:33;;;;;;;13.13;8.30;;;11.40;99.90;;;;;;4954111;28;20216;-86
2023/09/23 06:51:02;;;;;;;14.98;9.57;;;11.40;99.90;;;;;;4937977;29;20469;-87
2023/09/23 06:53:29;;;;;;;15.20;8.73;;;11.50;99.90;;;;;;4952174;28;20039;-88
2023/09/23 06:55:56;;;;;;;14.27;9.35;;;11.70;99.90;;;;;;4928257;29;20588;-87
2023/09/23 06:58:22;;;;;;;14.32;8.82;;;11.70;99.90;;;;;;4935769;29;20035;-86
2023/09/23 07:00:50;;;;;;;11.60;8.75;;;11.70;99.90;;;;;;4942020;29;20082;-87
2023/09/23 07:03:19;;;;;;;10.38;8.02;;;11.80;99.90;;;;;;4954793;28;20135;-86
2023/09/23 07:05:48;;;;;;;15.55;8.50;;;11.90;99.90;;;;;;4924878;29;20118;-88
2023/09/23 07:08:14;;;;;;;14.38;8.38;;;12.00;99.90;;;;;;4954233;28;20027;-87
2023/09/23 07:10:41;;;;;;;12.00;7.60;;;12.20;99.90;;;;;;4938657;29;20024;-87
2023/09/23 07:13:08;;;;;;;12.40;7.55;;;12.30;99.90;;;;;;4954766;29;20122;-88
2023/09/23 07:15:38;;;;;;;10.32;7.40;;;12.40;99.90;;;;;;4947959;29;20028;-88
2023/09/23 07:18:10;;;;;;;11.25;7.43;;;12.60;99.90;;;;;;4945316;28;20036;-87
2023/09/23 07:20:36;;;;;;;12.43;7.38;;;12.80;99.90;;;;;;4958049;29;20023;-88
2023/09/23 07:23:02;;;;;;;14.52;7.32;;;12.80;99.90;;;;;;4957988;28;20547;-87
2023/09/23 07:25:28;;;;;;;8.90;7.10;;;12.90;99.90;;;;;;4958027;29;20057;-88
2023/09/23 07:27:54;;;;;;;13.65;7.35;;;13.00;99.90;;;;;;4959031;29;20539;-88
2023/09/23 07:30:20;;;;;;;13.85;6.47;;;13.00;99.90;;;;;;4957169;29;20031;-89
2023/09/23 07:32:45;;;;;;;11.57;6.70;;;13.00;99.90;;;;;;4965031;28;20069;-88
2023/09/23 07:35:11;;;;;;;11.38;7.70;;;12.90;99.90;;;;;;4958095;29;20427;-89
2023/09/23 07:37:36;;;;;;;12.10;8.10;;;12.90;99.90;;;;;;4957742;29;20031;-88
2023/09/23 07:40:03;;;;;;;12.50;7.38;;;12.80;99.90;;;;;;4957679;29;20392;-89
2023/09/23 07:42:29;;;;;;;12.52;8.13;;;12.90;99.90;;;;;;4957785;29;20058;-88
2023/09/23 07:44:55;;;;;;;11.32;7.32;;;13.00;99.90;;;;;;4962227;28;20023;-89
2023/09/23 07:47:20;;;;;;;14.13;8.40;;;13.00;99.90;;;;;;4941355;29;20035;-89
2023/09/23 07:49:46;;;;;;;18.17;8.00;;;13.10;99.90;;;;;;4974152;28;20027;-89
2023/09/23 07:52:11;;;;;;;16.00;8.40;;;13.20;99.90;;;;;;4965589;28;20031;-89
2023/09/23 07:54:38;;;;;;;14.93;8.60;;;13.30;99.90;;;;;;4952464;29;20078;-89
2023/09/23 07:57:04;;;;;;;13.27;7.78;;;13.30;99.90;;;;;;4952254;29;20063;-88
2023/09/23 07:59:29;;;;;;;14.88;7.97;;;13.40;99.90;;;;;;4941055;29;20066;-89
2023/09/23 08:01:55;;;;;;;13.13;6.97;;;13.50;99.90;;;;;;4941471;29;20031;-88
2023/09/23 08:04:20;;;;;;;10.10;6.80;;;13.50;99.90;;;;;;4941058;29;20102;-88
2023/09/23 08:06:46;;;;;;;12.48;7.50;;;13.50;99.90;;;;;;4957321;29;20058;-87
2023/09/23 08:09:11;;;;;;;10.68;6.35;;;13.50;99.90;;;;;;4957302;29;20023;-88
2023/09/23 08:11:37;;;;;;;11.13;6.15;;;13.40;99.90;;;;;;4957493;29;20038;-88
2023/09/23 08:14:02;;;;;;;11.00;6.20;;;13.40;99.90;;;;;;4942348;29;20035;-89
2023/09/23 08:16:28;;;;;;;10.55;5.50;;;13.30;99.90;;;;;;4955911;28;20034;-88
2023/09/23 08:18:53;;;;;;;8.85;5.30;;;13.40;99.90;;;;;;4943545;29;20031;-88
2023/09/23 08:21:19;;;;;;;9.48;5.15;;;13.50;99.90;;;;;;4957064;29;20020;-87
2023/09/23 08:23:44;;;;;;;12.05;5.43;;;13.60;99.90;;;;;;4956075;28;20126;-89
2023/09/23 08:26:11;;;;;;;9.45;5.15;;;13.70;99.90;;;;;;4973477;28;20026;-88
2023/09/23 08:28:37;;;;;;;8.55;4.50;;;13.90;99.90;;;;;;4955894;28;20023;-87
2023/09/23 08:31:02;;;;;;;9.70;4.97;;;14.00;99.90;;;;;;4940520;29;20035;-88
2023/09/23 08:33:28;;;;;;;6.75;4.30;;;14.00;99.90;;;;;;4940166;29;20043;-88
2023/09/23 08:35:54;;;;;;;8.27;3.95;;;14.00;99.90;;;;;;4956788;29;20464;-89
2023/09/23 08:38:20;;;;;;;9.00;4.32;;;14.10;99.90;;;;;;4956301;29;20043;-88
2023/09/23 08:40:46;;;;;;;8.55;4.07;;;14.10;99.90;;;;;;4956628;29;20110;-88
2023/09/23 08:43:12;;;;;;;9.15;4.47;;;14.20;99.90;;;;;;4955104;28;20063;-87
2023/09/23 08:45:43;;;;;;;7.00;3.70;;;14.20;99.90;;;;;;4936197;29;20110;-88
2023/09/23 08:48:11;;;;;;;8.27;3.75;;;14.20;99.90;;;;;;4937186;29;20063;-87
2023/09/23 08:50:40;;;;;;;8.55;4.35;;;14.30;99.90;;;;;;4940205;29;20059;-88
2023/09/23 08:53:07;;;;;;;9.50;3.88;;;14.40;99.90;;;;;;4956044;28;20023;-87
2023/09/23 08:55:34;;;;;;;8.43;4.13;;;14.50;99.90;;;;;;4972634;28;20027;-88
2023/09/23 08:58:02;;;;;;;8.25;4.35;;;14.80;99.90;;;;;;4945067;28;20035;-87
2023/09/23 09:00:29;;;;;;;11.35;4.65;;;14.90;99.90;;;;;;4944548;29;20038;-87
2023/09/23 09:02:55;;;;;;;7.22;4.25;;;15.00;99.90;;;;;;4941899;29;20039;-87
2023/09/23 09:05:20;;;;;;;6.90;4.28;;;15.10;99.90;;;;;;4955795;29;20019;-87
2023/09/23 09:07:46;;;;;;;10.20;4.25;;;15.20;99.90;;;;;;4955848;29;20023;-87
2023/09/23 09:10:12;;;;;;;8.65;4.18;;;15.30;99.90;;;;;;4957373;29;20024;-87
2023/09/23 09:12:37;;;;;;;8.40;4.22;;;15.30;99.90;;;;;;4956123;29;20027;-85
2023/09/23 09:15:03;;;;;;;8.40;4.00;;;15.30;99.90;;;;;;4939855;29;20031;-87
2023/09/23 09:17:33;;;;;;;9.07;3.65;;;15.40;99.90;;;;;;4954199;29;20038;-87
2023/09/23 09:20:08;;;;;;;8.30;3.85;;;15.30;99.90;;;;;;4936618;29;20131;-87
2023/09/23 09:22:34;;;;;;;7.40;3.28;;;15.30;99.90;;;;;;4949723;28;20027;-87
2023/09/23 09:25:01;;;;;;;9.00;3.42;;;15.50;99.90;;;;;;4955622;29;20035;-87
2023/09/23 09:27:28;;;;;;;9.07;3.50;;;15.60;99.90;;;;;;4955241;29;20034;-88
2023/09/23 09:29:54;;;;;;;8.35;3.25;;;15.70;99.90;;;;;;4939187;29;20507;-87
2023/09/23 09:32:29;;;;;;;5.13;2.78;;;15.80;99.90;;;;;;4955034;29;20050;-87
2023/09/23 09:34:59;;;;;;;11.07;2.17;;;15.90;99.90;;;;;;4932930;29;20062;-87
2023/09/23 09:37:27;;;;;;;5.60;2.45;;;15.90;99.90;;;;;;4939527;29;20508;-87
2023/09/23 09:40:00;;;;;;;4.32;2.47;;;16.00;99.90;;;;;;4948658;29;20046;-87
2023/09/23 09:42:33;;;;;;;3.60;2.03;;;16.10;99.90;;;;;;4948714;28;20055;-87
2023/09/23 09:44:59;;;;;;;6.63;2.28;;;16.10;99.90;;;;;;4954630;29;20488;-87
2023/09/23 09:47:27;;;;;;;6.13;2.25;;;16.10;99.90;;;;;;4956166;28;20081;-87
2023/09/23 09:49:54;;;;;;;6.40;2.90;;;16.10;99.90;;;;;;4956245;29;20034;-87
2023/09/23 09:52:24;;;;;;;6.50;2.30;;;16.00;99.90;;;;;;4955104;29;20023;-87
2023/09/23 09:54:53;;;;;;;6.88;1.80;;;16.10;99.90;;;;;;4954619;29;20027;-87
2023/09/23 09:57:20;;;;;;;5.43;1.90;;;16.00;99.90;;;;;;4954925;29;20126;-86
2023/09/23 09:59:46;;;;;;;6.35;2.13;;;15.90;99.90;;;;;;4939916;29;20047;-87
2023/09/23 10:02:13;;;;;;;5.43;2.55;;;15.90;99.90;;;;;;4938248;29;20023;-87
2023/09/23 10:04:45;;;;;;;4.95;2.25;;;15.80;99.90;;;;;;4954843;29;20106;-87
2023/09/23 10:07:11;;;;;;;7.50;1.92;;;15.90;99.90;;;;;;4938589;29;20034;-88
2023/09/23 10:09:40;;;;;;;7.03;2.50;;;15.90;99.90;;;;;;4954645;29;20028;-87
2023/09/23 10:12:07;;;;;;;5.53;2.25;;;16.00;99.90;;;;;;4938376;29;20031;-87
2023/09/23 10:14:33;;;;;;;5.72;2.20;;;16.10;99.90;;;;;;4954567;28;20027;-87
2023/09/23 10:17:05;;;;;;;4.88;2.22;;;16.20;99.90;;;;;;4953372;29;20145;-87
2023/09/23 10:19:32;;;;;;;5.93;2.05;;;16.30;99.90;;;;;;4954585;29;20043;-87
2023/09/23 10:22:13;;;;;;;6.70;2.20;;;16.30;99.90;;;;;;4955137;29;20153;-87
2023/09/23 10:24:42;;;;;;;9.73;3.15;;;16.30;99.90;;;;;;4954460;29;20070;-87
2023/09/23 10:27:12;;;;;;;5.28;2.00;;;16.30;99.90;;;;;;4954084;29;20122;-87
2023/09/23 10:29:47;;;;;;;6.03;1.75;;;16.30;99.90;;;;;;4938336;29;20118;-87
2023/09/23 10:32:16;;;;;;;5.63;1.98;;;16.40;99.90;;;;;;4955195;29;20031;-87
2023/09/23 10:34:55;;;;;;;4.40;2.40;;;16.40;99.90;;;;;;4936203;29;20059;-88
2023/09/23 10:37:32;;;;;;;9.75;2.47;;;16.40;99.90;;;;;;4934818;29;20138;-86
2023/09/23 10:40:14;;;;;;;4.25;2.00;;;16.50;99.90;;;;;;4950593;29;20036;-86
2023/09/23 10:42:41;;;;;;;6.43;2.72;;;16.60;99.90;;;;;;4953199;28;20084;-87
2023/09/23 10:45:08;;;;;;;6.18;1.90;;;16.60;99.90;;;;;;4943489;29;20032;-87
2023/09/23 10:47:37;;;;;;;8.13;2.13;;;16.70;99.90;;;;;;4953981;29;20054;-87
2023/09/23 10:50:08;;;;;;;4.43;1.95;;;16.80;99.90;;;;;;4954030;28;20240;-87
2023/09/23 10:52:34;;;;;;;7.18;1.67;;;16.90;99.90;;;;;;4953462;28;20089;-87
2023/09/23 10:54:59;;;;;;;5.75;1.42;;;16.90;99.90;;;;;;4937912;29;20114;-87
2023/09/23 10:57:25;;;;;;;3.05;1.25;;;17.00;99.90;;;;;;4948075;29;20027;-87
2023/09/23 10:59:52;;;;;;;6.28;1.92;;;17.10;99.90;;;;;;4953641;29;20042;-87
2023/09/23 11:02:22;;;;;;;4.65;1.38;;;17.20;99.90;;;;;;4937989;29;20034;-87
2023/09/23 11:04:49;;;;;;;5.80;1.55;;;17.50;99.90;;;;;;4953893;29;20039;-87
2023/09/23 11:07:16;;;;;;;5.45;1.77;;;17.60;99.90;;;;;;4955140;28;20031;-87
2023/09/23 11:09:47;;;;;;;4.95;1.50;;;17.70;99.90;;;;;;4954207;29;20503;-87
2023/09/23 11:12:15;;;;;;;4.93;1.88;;;17.60;99.90;;;;;;4952947;29;20023;-86
2023/09/23 11:14:45;;;;;;;5.30;1.25;;;17.60;99.90;;;;;;4937918;29;20484;-88
2023/09/23 11:17:20;;;;;;;5.07;1.60;;;17.50;99.90;;;;;;4953413;29;20031;-86
2023/09/23 11:19:56;;;;;;;6.70;1.75;;;17.70;99.90;;;;;;4953833;29;20118;-86
2023/09/23 11:22:23;;;;;;;5.00;1.77;;;17.90;99.90;;;;;;4952499;29;20039;-86
2023/09/23 11:24:49;;;;;;;4.20;1.33;;;18.10;99.90;;;;;;4954121;29;20023;-85
2023/09/23 11:27:17;;;;;;;4.90;1.60;;;18.20;99.90;;;;;;4953106;29;20035;-86
2023/09/23 11:29:42;;;;;;;4.43;1.63;;;18.20;99.90;;;;;;4939762;29;20531;-85
2023/09/23 11:32:08;;;;;;;3.13;1.30;;;18.10;99.90;;;;;;4954298;29;20055;-86
2023/09/23 11:34:35;;;;;;;4.63;1.88;;;17.80;99.90;;;;;;4953857;29;20087;-85
2023/09/23 11:37:01;;;;;;;5.85;1.70;;;17.60;99.90;;;;;;4953722;29;20030;-86
2023/09/23 11:39:26;;;;;;;5.00;1.63;;;17.40;99.90;;;;;;4953239;29;20035;-86
2023/09/23 11:41:57;;;;;;;5.00;1.58;;;17.10;99.90;;;;;;4952629;29;20027;-85
2023/09/23 11:44:23;;;;;;;3.83;1.30;;;16.80;99.90;;;;;;4953787;29;20036;-88
2023/09/23 11:46:48;;;;;;;5.18;1.38;;;16.50;99.90;;;;;;4937572;29;20034;-86
2023/09/23 11:49:14;;;;;;;6.63;1.83;;;16.30;99.90;;;;;;4937691;29;20027;-86
2023/09/23 11:51:39;;;;;;;6.28;2.15;;;16.00;99.90;;;;;;4960283;28;20027;-88
2023/09/23 11:54:05;;;;;;;7.40;2.20;;;15.80;99.90;;;;;;4953573;29;20019;-87
2023/09/23 11:56:32;;;;;;;6.03;1.10;;;15.90;99.90;;;;;;4952904;28;20029;-87
2023/09/23 11:58:58;;;;;;;6.05;1.50;;;15.90;99.90;;;;;;4934124;29;20100;-87
2023/09/23 12:01:24;;;;;;;5.38;1.25;;;15.90;99.90;;;;;;4950554;28;20039;-88
2023/09/23 12:03:49;;;;;;;7.45;2.22;;;16.00;99.90;;;;;;4940244;29;20082;-87
2023/09/23 12:06:16;;;;;;;4.45;1.30;;;16.20;99.90;;;;;;4948029;28;20086;-87
2023/09/23 12:08:42;;;;;;;7.50;1.90;;;16.30;99.90;;;;;;4957341;29;20023;-87
2023/09/23 12:11:07;;;;;;;6.38;1.25;;;16.40;99.90;;;;;;4949610;29;20525;-86
2023/09/23 12:13:33;;;;;;;5.75;1.23;;;16.50;99.90;;;;;;4938857;29;20032;-86
2023/09/23 12:15:58;;;;;;;3.88;1.25;;;16.60;99.90;;;;;;4939833;29;20507;-87
2023/09/23 12:18:24;;;;;;;4.43;1.20;;;16.70;99.90;;;;;;4939483;29;20083;-86
2023/09/23 12:20:50;;;;;;;2.88;1.40;;;16.90;99.90;;;;;;4965192;28;20447;-87
2023/09/23 12:23:19;;;;;;;3.42;1.55;;;17.10;99.90;;;;;;4957453;28;20031;-88
2023/09/23 12:25:45;;;;;;;7.50;1.70;;;17.30;99.90;;;;;;4956870;29;20042;-87
2023/09/23 12:28:11;;;;;;;2.63;1.23;;;17.50;99.90;;;;;;4939730;29;20027;-88
2023/09/23 12:30:36;;;;;;;4.25;0.68;;;17.90;99.90;;;;;;4947597;29;20036;-87
2023/09/23 12:33:02;;;;;;;2.63;0.57;;;18.10;99.90;;;;;;4955252;29;20051;-88
2023/09/23 12:35:27;;;;;;;1.70;0.40;;;18.10;99.90;;;;;;4951928;29;20039;-87
2023/09/23 12:37:54;;;;;;;3.65;0.60;;;18.10;99.90;;;;;;4937516;29;20024;-88
2023/09/23 12:40:19;;;;;;;2.83;0.75;;;18.00;99.90;;;;;;4942957;29;20148;-87